logo
Search for airport 
image banner adimage banner adimage banner ad
image banner ad

YSPGD - Springwood

Located in Albinia, Australia

ICAO - , IATA -

Data provided by Airmate  

General information

Coordinates: S24°32'18" E148°21'43"
Elevation is 840 feet MSL.
Magnetic variation is 9° East
View others Airports in Queensland

Operational data

Special qualification required
Current time UTC:
Current local time:
Weather at : - ( 0 km )
METAR: KAFP 171357Z AUTO 20004KT 10SM CLR 28/23 A3000 RMK AO2 T02770230
View NOTAMs / SUP AIP / TFR affecting this airport [VIEW]
Communications frequencies: [VIEW]

Runways:

RWY identifierQFULength (ft)Width (ft)SurfaceLDA (ft)
20208°3259146GRAS
0228°3259146GRAS

Airport contact information

Address: Albinia Australia

Satellite view of YSPGD